Hermes Leader — C6AX9 — position and weather

sailwx.info

Track history (hours):
 
Tides and Currents Weather Stations Pressure Air Temp Water Temp Dewpoint Dewpoint Depression Visibility Wind Speed Wind Dir Waves Ship Positions

Hermes Leader

Last reported at 2017-Dec-09 13:16 UTC. Time now 2017-Dec-16 07:19 UTC.
Position N 01°19' E 103°20'.

Length 200 m; draft 9.6 m.

Type: Cargo ship. MMSI: 311000188.

Date/timePositionNaut miles runAvg speedWind from/ knotsBaromVisibWave heightAir tempDewpointWater temp
2017-Dec-09 13:16N 01°19' E 103°20'416.4
2017-Dec-09 13:00N 01°16' E 103°23'815.4
2017-Dec-09 12:30N 01°13' E 103°30'714.9
2017-Dec-09 12:00N 01°11' E 103°37'4 8.7
2017-Dec-09 11:30N 01°13' E 103°41'510.5
2017-Dec-09 11:00N 01°17' E 103°45'0 0.4
2017-Dec-09 10:27N 01°17' E 103°45'0 0.0
2017-Dec-09 09:54N 01°17' E 103°45'0 0.0
2017-Dec-09 09:30N 01°17' E 103°45'0 0.0
2017-Dec-09 08:57N 01°17' E 103°45'0 0.0
2017-Dec-09 08:30N 01°17' E 103°45'0 0.0
2017-Dec-09 08:00N 01°17' E 103°45'0 0.0
2017-Dec-09 07:30N 01°17' E 103°45'0 0.0
2017-Dec-09 07:00N 01°17' E 103°45'0 0.0
2017-Dec-09 06:30N 01°17' E 103°45'0 0.0
2017-Dec-09 06:00N 01°17' E 103°45'0 0.0
2017-Dec-09 05:30N 01°17' E 103°45'0 0.0
2017-Dec-09 05:00N 01°17' E 103°45'0 0.0
2017-Dec-09 04:30N 01°17' E 103°45'0 0.0
2017-Dec-09 04:00N 01°17' E 103°45'0 0.0
2017-Dec-09 03:30N 01°17' E 103°45'0 0.0
2017-Dec-09 03:00N 01°17' E 103°45'0 0.0
2017-Dec-09 02:30N 01°17' E 103°45'0 0.0
2017-Dec-09 02:00N 01°17' E 103°45'0 0.0
2017-Dec-09 01:30N 01°17' E 103°45'0 0.0
2017-Dec-09 01:00N 01°17' E 103°45'0 0.0
2017-Dec-09 00:30N 01°17' E 103°45'0 0.0
2017-Dec-09 00:00N 01°17' E 103°45'0 0.0
2017-Dec-08 23:30N 01°17' E 103°45'0 0.0
2017-Dec-08 23:00N 01°17' E 103°45'0 0.3
2017-Dec-08 22:30N 01°17' E 103°45'3 6.0
2017-Dec-08 22:00N 01°15' E 103°47'611.4
2017-Dec-08 21:30N 01°13' E 103°52'3 5.8
2017-Dec-08 21:00N 01°14' E 103°55'4 8.5
2017-Dec-08 20:30N 01°15' E 103°59'5 9.4
2017-Dec-08 20:00N 01°16' E 104°04'  
2017-Dec-01 12:03N 34°09' E 137°51'115.8
2017-Dec-01 12:00N 34°10' E 137°52'915.6
2017-Dec-01 11:26N 34°16' E 137°59'715.7
2017-Dec-01 11:00N 34°22' E 138°05'715.3
2017-Dec-01 10:30N 34°27' E 138°10'815.2
2017-Dec-01 10:00N 34°33' E 138°16'611.4
2017-Dec-01 09:30N 34°39' E 138°14'2 3.8
2017-Dec-01 09:00N 34°37' E 138°13'0 0.2
2017-Dec-01 08:30N 34°37' E 138°13'0 0.0
2017-Dec-01 08:00N 34°37' E 138°13'0 0.0
2017-Dec-01 07:30N 34°37' E 138°13'0 0.0
2017-Dec-01 07:00N 34°37' E 138°13'0 0.0
2017-Dec-01 06:30N 34°37' E 138°13'0 0.0
2017-Dec-01 06:00N 34°37' E 138°13'0 0.0
2017-Dec-01 05:30N 34°37' E 138°13'0 0.0
2017-Dec-01 05:00N 34°37' E 138°13'0 0.0
2017-Dec-01 04:30N 34°37' E 138°13'0 0.0
2017-Dec-01 04:00N 34°37' E 138°13'0 0.0
2017-Dec-01 03:30N 34°37' E 138°13'0 0.0
2017-Dec-01 03:00N 34°37' E 138°13'0 0.0
2017-Dec-01 02:30N 34°37' E 138°13'0 0.0
2017-Dec-01 01:54N 34°37' E 138°13'0 0.0
2017-Dec-01 01:30N 34°37' E 138°13'0 0.0
2017-Dec-01 01:00N 34°37' E 138°13'0 0.0
2017-Dec-01 00:30N 34°37' E 138°13'0 0.0
2017-Dec-01 00:00N 34°37' E 138°13'0 0.0
2017-Nov-30 23:30N 34°37' E 138°13'0 0.0
2017-Nov-30 23:00N 34°37' E 138°13'0 0.0
2017-Nov-30 22:27N 34°37' E 138°13'0 0.0
2017-Nov-30 21:48N 34°37' E 138°13'0 0.0
2017-Nov-30 21:30N 34°37' E 138°13'0 0.0
2017-Nov-30 20:57N 34°37' E 138°13'0 0.0
2017-Nov-30 20:30N 34°37' E 138°13'0 0.0
2017-Nov-30 20:00N 34°37' E 138°13'0 0.0
2017-Nov-30 19:30N 34°37' E 138°13'0 0.0
2017-Nov-30 19:00N 34°37' E 138°13'0 0.0
2017-Nov-30 18:30N 34°37' E 138°13'0 0.0
2017-Nov-30 18:00N 34°37' E 138°13'0 0.0
2017-Nov-30 17:30N 34°37' E 138°13'0 0.0
2017-Nov-30 17:00N 34°37' E 138°13'0 0.0
2017-Nov-30 16:30N 34°37' E 138°13'0 0.0
2017-Nov-30 16:00N 34°37' E 138°13'0 0.0
2017-Nov-30 15:30N 34°37' E 138°13'0 0.0
2017-Nov-30 15:00N 34°37' E 138°13'0 0.0
2017-Nov-30 14:30N 34°37' E 138°13'0 0.0
2017-Nov-30 14:00N 34°37' E 138°13'0 0.0
2017-Nov-30 13:30N 34°37' E 138°13'0 0.0
2017-Nov-30 13:00N 34°37' E 138°13'0 0.0
2017-Nov-30 12:30N 34°37' E 138°13'0 0.0
2017-Nov-30 12:00N 34°37' E 138°13'0 0.0
2017-Nov-30 11:30N 34°37' E 138°13'0 0.0
2017-Nov-30 11:00N 34°37' E 138°13'0 0.0
2017-Nov-30 10:09N 34°37' E 138°13'0 0.0
2017-Nov-30 10:00N 34°37' E 138°13'0 0.0
2017-Nov-30 09:30N 34°37' E 138°13'0 0.0
2017-Nov-30 09:00N 34°37' E 138°13'0 0.0
2017-Nov-30 08:30N 34°37' E 138°13'0 0.0
2017-Nov-30 08:00N 34°37' E 138°13'0 0.0
2017-Nov-30 07:30N 34°37' E 138°13'0 0.0
2017-Nov-30 07:00N 34°37' E 138°13'0 0.0
2017-Nov-30 06:30N 34°37' E 138°13'0 0.0
2017-Nov-30 06:00N 34°37' E 138°13'0 0.0
2017-Nov-30 05:30N 34°37' E 138°13'0 0.0
2017-Nov-30 05:00N 34°37' E 138°13'0 0.0
2017-Nov-30 04:30N 34°37' E 138°13'0 0.0
2017-Nov-30 04:00N 34°37' E 138°13'0 0.0
2017-Nov-30 03:30N 34°37' E 138°13'0 0.0
2017-Nov-30 03:00N 34°37' E 138°13'0 0.0
2017-Nov-30 02:30N 34°37' E 138°13'0 0.0
2017-Nov-30 02:00N 34°37' E 138°13'0 0.0
2017-Nov-30 01:30N 34°37' E 138°13'0 0.0
2017-Nov-30 01:00N 34°37' E 138°13'0 0.0
2017-Nov-30 00:30N 34°37' E 138°13'0 0.0
2017-Nov-29 23:54N 34°37' E 138°13'0 0.0
2017-Nov-29 23:30N 34°37' E 138°13'0 0.0
2017-Nov-29 23:00N 34°37' E 138°13'0 0.0
2017-Nov-29 22:30N 34°37' E 138°13'0 0.0
2017-Nov-29 22:00N 34°37' E 138°13'0 0.0
2017-Nov-29 21:30N 34°37' E 138°13'0 0.0
2017-Nov-29 21:00N 34°37' E 138°13'0 0.0
2017-Nov-29 20:21N 34°37' E 138°13'0 0.0
2017-Nov-29 19:54N 34°37' E 138°13'0 0.0
2017-Nov-29 19:21N 34°37' E 138°13'0 0.0
2017-Nov-29 18:57N 34°37' E 138°13'0 0.0
2017-Nov-29 18:27N 34°37' E 138°13'0 0.0
2017-Nov-29 17:51N 34°37' E 138°13'0 0.0
2017-Nov-29 17:18N 34°37' E 138°13'0 0.0
2017-Nov-29 17:00N 34°37' E 138°13'0 0.0
2017-Nov-29 16:30N 34°37' E 138°13'0 0.0
2017-Nov-29 15:45N 34°37' E 138°13'0 0.0
2017-Nov-29 15:30N 34°37' E 138°13'0 0.0
2017-Nov-29 14:54N 34°37' E 138°13'0 0.0
2017-Nov-29 14:30N 34°37' E 138°13'0 0.0
2017-Nov-29 14:00N 34°37' E 138°13'0 0.0
2017-Nov-29 13:30N 34°37' E 138°13'  
Track history (hours):
 
Tides and Currents Weather Stations Pressure Air Temp Water Temp Dewpoint Dewpoint Depression Visibility Wind Speed Wind Dir Waves Ship Positions

Hermes Leader

Last reported at 2017-Dec-09 13:16 UTC. Time now 2017-Dec-16 07:19 UTC.
Position N 01°19' E 103°20'.

Length 200 m; draft 9.6 m.

Type: Cargo ship. MMSI: 311000188.

Date/timePositionNaut miles runAvg speedWind from/ knotsBaromVisibWave heightAir tempDewpointWater temp
2017-Dec-09 13:16N 01°19' E 103°20'416.4
2017-Dec-09 13:00N 01°16' E 103°23'815.4
2017-Dec-09 12:30N 01°13' E 103°30'714.9
2017-Dec-09 12:00N 01°11' E 103°37'4 8.7
2017-Dec-09 11:30N 01°13' E 103°41'510.5
2017-Dec-09 11:00N 01°17' E 103°45'0 0.4
2017-Dec-09 10:27N 01°17' E 103°45'0 0.0
2017-Dec-09 09:54N 01°17' E 103°45'0 0.0
2017-Dec-09 09:30N 01°17' E 103°45'0 0.0
2017-Dec-09 08:57N 01°17' E 103°45'0 0.0
2017-Dec-09 08:30N 01°17' E 103°45'0 0.0
2017-Dec-09 08:00N 01°17' E 103°45'0 0.0
2017-Dec-09 07:30N 01°17' E 103°45'0 0.0
2017-Dec-09 07:00N 01°17' E 103°45'0 0.0
2017-Dec-09 06:30N 01°17' E 103°45'0 0.0
2017-Dec-09 06:00N 01°17' E 103°45'0 0.0
2017-Dec-09 05:30N 01°17' E 103°45'0 0.0
2017-Dec-09 05:00N 01°17' E 103°45'0 0.0
2017-Dec-09 04:30N 01°17' E 103°45'0 0.0
2017-Dec-09 04:00N 01°17' E 103°45'0 0.0
2017-Dec-09 03:30N 01°17' E 103°45'0 0.0
2017-Dec-09 03:00N 01°17' E 103°45'0 0.0
2017-Dec-09 02:30N 01°17' E 103°45'0 0.0
2017-Dec-09 02:00N 01°17' E 103°45'0 0.0
2017-Dec-09 01:30N 01°17' E 103°45'0 0.0
2017-Dec-09 01:00N 01°17' E 103°45'0 0.0
2017-Dec-09 00:30N 01°17' E 103°45'0 0.0
2017-Dec-09 00:00N 01°17' E 103°45'0 0.0
2017-Dec-08 23:30N 01°17' E 103°45'0 0.0
2017-Dec-08 23:00N 01°17' E 103°45'0 0.3
2017-Dec-08 22:30N 01°17' E 103°45'3 6.0
2017-Dec-08 22:00N 01°15' E 103°47'611.4
2017-Dec-08 21:30N 01°13' E 103°52'3 5.8
2017-Dec-08 21:00N 01°14' E 103°55'4 8.5
2017-Dec-08 20:30N 01°15' E 103°59'5 9.4
2017-Dec-08 20:00N 01°16' E 104°04'  
2017-Dec-01 12:03N 34°09' E 137°51'115.8
2017-Dec-01 12:00N 34°10' E 137°52'915.6
2017-Dec-01 11:26N 34°16' E 137°59'715.7
2017-Dec-01 11:00N 34°22' E 138°05'715.3
2017-Dec-01 10:30N 34°27' E 138°10'815.2
2017-Dec-01 10:00N 34°33' E 138°16'611.4
2017-Dec-01 09:30N 34°39' E 138°14'2 3.8
2017-Dec-01 09:00N 34°37' E 138°13'0 0.2
2017-Dec-01 08:30N 34°37' E 138°13'0 0.0
2017-Dec-01 08:00N 34°37' E 138°13'0 0.0
2017-Dec-01 07:30N 34°37' E 138°13'0 0.0
2017-Dec-01 07:00N 34°37' E 138°13'0 0.0
2017-Dec-01 06:30N 34°37' E 138°13'0 0.0
2017-Dec-01 06:00N 34°37' E 138°13'0 0.0
2017-Dec-01 05:30N 34°37' E 138°13'0 0.0
2017-Dec-01 05:00N 34°37' E 138°13'0 0.0
2017-Dec-01 04:30N 34°37' E 138°13'0 0.0
2017-Dec-01 04:00N 34°37' E 138°13'0 0.0
2017-Dec-01 03:30N 34°37' E 138°13'0 0.0
2017-Dec-01 03:00N 34°37' E 138°13'0 0.0
2017-Dec-01 02:30N 34°37' E 138°13'0 0.0
2017-Dec-01 01:54N 34°37' E 138°13'0 0.0
2017-Dec-01 01:30N 34°37' E 138°13'0 0.0
2017-Dec-01 01:00N 34°37' E 138°13'0 0.0
2017-Dec-01 00:30N 34°37' E 138°13'0 0.0
2017-Dec-01 00:00N 34°37' E 138°13'0 0.0
2017-Nov-30 23:30N 34°37' E 138°13'0 0.0
2017-Nov-30 23:00N 34°37' E 138°13'0 0.0
2017-Nov-30 22:27N 34°37' E 138°13'0 0.0
2017-Nov-30 21:48N 34°37' E 138°13'0 0.0
2017-Nov-30 21:30N 34°37' E 138°13'0 0.0
2017-Nov-30 20:57N 34°37' E 138°13'0 0.0
2017-Nov-30 20:30N 34°37' E 138°13'0 0.0
2017-Nov-30 20:00N 34°37' E 138°13'0 0.0
2017-Nov-30 19:30N 34°37' E 138°13'0 0.0
2017-Nov-30 19:00N 34°37' E 138°13'0 0.0
2017-Nov-30 18:30N 34°37' E 138°13'0 0.0
2017-Nov-30 18:00N 34°37' E 138°13'0 0.0
2017-Nov-30 17:30N 34°37' E 138°13'0 0.0
2017-Nov-30 17:00N 34°37' E 138°13'0 0.0
2017-Nov-30 16:30N 34°37' E 138°13'0 0.0
2017-Nov-30 16:00N 34°37' E 138°13'0 0.0
2017-Nov-30 15:30N 34°37' E 138°13'0 0.0
2017-Nov-30 15:00N 34°37' E 138°13'0 0.0
2017-Nov-30 14:30N 34°37' E 138°13'0 0.0
2017-Nov-30 14:00N 34°37' E 138°13'0 0.0
2017-Nov-30 13:30N 34°37' E 138°13'0 0.0
2017-Nov-30 13:00N 34°37' E 138°13'0 0.0
2017-Nov-30 12:30N 34°37' E 138°13'0 0.0
2017-Nov-30 12:00N 34°37' E 138°13'0 0.0
2017-Nov-30 11:30N 34°37' E 138°13'0 0.0
2017-Nov-30 11:00N 34°37' E 138°13'0 0.0
2017-Nov-30 10:09N 34°37' E 138°13'0 0.0
2017-Nov-30 10:00N 34°37' E 138°13'0 0.0
2017-Nov-30 09:30N 34°37' E 138°13'0 0.0
2017-Nov-30 09:00N 34°37' E 138°13'0 0.0
2017-Nov-30 08:30N 34°37' E 138°13'0 0.0
2017-Nov-30 08:00N 34°37' E 138°13'0 0.0
2017-Nov-30 07:30N 34°37' E 138°13'0 0.0
2017-Nov-30 07:00N 34°37' E 138°13'0 0.0
2017-Nov-30 06:30N 34°37' E 138°13'0 0.0
2017-Nov-30 06:00N 34°37' E 138°13'0 0.0
2017-Nov-30 05:30N 34°37' E 138°13'0 0.0
2017-Nov-30 05:00N 34°37' E 138°13'0 0.0
2017-Nov-30 04:30N 34°37' E 138°13'0 0.0
2017-Nov-30 04:00N 34°37' E 138°13'0 0.0
2017-Nov-30 03:30N 34°37' E 138°13'0 0.0
2017-Nov-30 03:00N 34°37' E 138°13'0 0.0
2017-Nov-30 02:30N 34°37' E 138°13'0 0.0
2017-Nov-30 02:00N 34°37' E 138°13'0 0.0
2017-Nov-30 01:30N 34°37' E 138°13'0 0.0
2017-Nov-30 01:00N 34°37' E 138°13'0 0.0
2017-Nov-30 00:30N 34°37' E 138°13'0 0.0
2017-Nov-29 23:54N 34°37' E 138°13'0 0.0
2017-Nov-29 23:30N 34°37' E 138°13'0 0.0
2017-Nov-29 23:00N 34°37' E 138°13'0 0.0
2017-Nov-29 22:30N 34°37' E 138°13'0 0.0
2017-Nov-29 22:00N 34°37' E 138°13'0 0.0
2017-Nov-29 21:30N 34°37' E 138°13'0 0.0
2017-Nov-29 21:00N 34°37' E 138°13'0 0.0
2017-Nov-29 20:21N 34°37' E 138°13'0 0.0
2017-Nov-29 19:54N 34°37' E 138°13'0 0.0
2017-Nov-29 19:21N 34°37' E 138°13'0 0.0
2017-Nov-29 18:57N 34°37' E 138°13'0 0.0
2017-Nov-29 18:27N 34°37' E 138°13'0 0.0
2017-Nov-29 17:51N 34°37' E 138°13'0 0.0
2017-Nov-29 17:18N 34°37' E 138°13'0 0.0
2017-Nov-29 17:00N 34°37' E 138°13'0 0.0
2017-Nov-29 16:30N 34°37' E 138°13'0 0.0
2017-Nov-29 15:45N 34°37' E 138°13'0 0.0
2017-Nov-29 15:30N 34°37' E 138°13'0 0.0
2017-Nov-29 14:54N 34°37' E 138°13'0 0.0
2017-Nov-29 14:30N 34°37' E 138°13'0 0.0
2017-Nov-29 14:00N 34°37' E 138°13'0 0.0
2017-Nov-29 13:30N 34°37' E 138°13'  

Dump ship's entire track history